createdAt,value
2024-03-22T00:01:21.398Z,119.5
2024-03-22T00:04:20.839Z,122.8
2024-03-22T00:07:20.825Z,123.1
2024-03-22T00:10:20.841Z,120.9
2024-03-22T00:13:20.844Z,121.1
2024-03-22T00:16:20.871Z,123.4
2024-03-22T00:19:20.808Z,124.6
2024-03-22T00:22:20.888Z,122.3
2024-03-22T00:25:20.861Z,124.2
2024-03-22T00:28:20.813Z,123.6
2024-03-22T00:31:21.231Z,122.4
2024-03-22T00:34:20.842Z,126.2
2024-03-22T00:37:20.856Z,127.3
2024-03-22T00:40:21.103Z,130.0
2024-03-22T00:43:20.952Z,131.5
2024-03-22T00:46:20.822Z,126.4
2024-03-22T00:49:20.762Z,130.8
2024-03-22T00:52:20.851Z,132.4
2024-03-22T00:55:20.818Z,130.8
2024-03-22T00:58:20.830Z,134.7
2024-03-22T01:01:21.023Z,133.1
2024-03-22T01:04:20.895Z,132.9
2024-03-22T01:07:20.809Z,128.8
2024-03-22T01:10:21.073Z,137.5
2024-03-22T01:13:20.925Z,134.9
2024-03-22T01:16:20.948Z,136.4
2024-03-22T01:19:20.907Z,135.6
2024-03-22T01:22:20.834Z,130.6
2024-03-22T01:25:20.880Z,129.5
2024-03-22T01:28:20.761Z,131.8
2024-03-22T01:31:20.971Z,131.3
2024-03-22T01:34:20.862Z,129.6
2024-03-22T01:37:20.758Z,135.4
2024-03-22T01:40:20.919Z,129.8
2024-03-22T01:43:20.871Z,128.3
2024-03-22T01:46:20.918Z,133.1
2024-03-22T01:49:20.776Z,130.6
2024-03-22T01:52:20.853Z,131.6
2024-03-22T01:55:20.865Z,130.1
2024-03-22T01:58:20.822Z,130.6
2024-03-22T02:01:20.971Z,128.0
2024-03-22T02:04:20.783Z,128.5
2024-03-22T02:07:20.869Z,129.3
2024-03-22T02:10:20.848Z,125.7
2024-03-22T02:13:20.726Z,129.3
2024-03-22T02:16:20.921Z,128.2
2024-03-22T02:19:20.760Z,129.0
2024-03-22T02:22:20.794Z,131.0
2024-03-22T02:25:20.797Z,131.0
2024-03-22T02:28:20.989Z,126.9
2024-03-22T02:31:21.098Z,125.7
2024-03-22T02:34:20.951Z,124.1
2024-03-22T02:37:20.781Z,124.4
2024-03-22T02:40:20.911Z,122.1
2024-03-22T02:43:20.816Z,123.6
2024-03-22T02:46:20.809Z,122.6
2024-03-22T02:49:20.948Z,120.0
2024-03-22T02:52:21.012Z,122.1
2024-03-22T02:55:20.786Z,118.0
2024-03-22T02:58:20.839Z,120.6
2024-03-22T03:01:22.927Z,121.9
2024-03-22T03:04:20.791Z,120.0
2024-03-22T03:07:20.792Z,120.5
2024-03-22T03:10:20.976Z,120.5
2024-03-22T03:13:20.826Z,118.3
2024-03-22T03:16:20.797Z,117.7
2024-03-22T03:19:20.900Z,115.4
2024-03-22T03:22:20.790Z,113.2
2024-03-22T03:25:20.878Z,113.9
2024-03-22T03:28:20.779Z,114.7
2024-03-22T03:31:20.910Z,115.4
2024-03-22T03:34:20.935Z,115.5
2024-03-22T03:37:20.770Z,117.2
2024-03-22T03:40:20.936Z,116.0
2024-03-22T03:43:20.748Z,114.7
2024-03-22T03:46:20.848Z,111.4
2024-03-22T03:49:21.008Z,107.5
2024-03-22T03:52:20.951Z,107.6
2024-03-22T03:55:20.994Z,106.0
2024-03-22T03:58:20.825Z,108.8
2024-03-22T04:01:21.130Z,109.9
2024-03-22T04:04:20.864Z,109.8
2024-03-22T04:07:20.968Z,111.6
2024-03-22T04:10:20.880Z,111.8
2024-03-22T04:13:20.773Z,110.4
2024-03-22T04:16:20.904Z,111.9
2024-03-22T04:19:20.801Z,114.7
2024-03-22T04:22:20.842Z,113.6
2024-03-22T04:25:21.033Z,114.1
2024-03-22T04:28:20.881Z,113.6
2024-03-22T04:31:21.055Z,115.7
2024-03-22T04:34:20.831Z,114.9
2024-03-22T04:37:20.793Z,116.8
2024-03-22T04:40:20.778Z,116.3
2024-03-22T04:43:20.821Z,117.2
2024-03-22T04:46:20.847Z,115.4
2024-03-22T04:49:20.794Z,115.5
2024-03-22T04:52:20.999Z,115.0
2024-03-22T04:55:20.808Z,115.0
2024-03-22T04:58:20.802Z,115.0
2024-03-22T05:01:21.072Z,113.6
2024-03-22T05:04:20.868Z,114.1
2024-03-22T05:07:20.817Z,110.6
2024-03-22T05:10:20.858Z,112.1
2024-03-22T05:13:20.769Z,111.4
2024-03-22T05:16:20.885Z,110.9
2024-03-22T05:19:20.812Z,110.1
2024-03-22T05:22:20.770Z,109.6
2024-03-22T05:25:20.908Z,107.2
2024-03-22T05:28:20.892Z,104.7
2024-03-22T05:31:21.048Z,105.4
2024-03-22T05:34:20.839Z,104.5
2024-03-22T05:37:20.879Z,102.6
2024-03-22T05:40:20.777Z,104.4
2024-03-22T05:43:20.823Z,103.1
2024-03-22T05:46:20.927Z,98.7
2024-03-22T05:49:20.808Z,102.4
2024-03-22T05:52:20.818Z,102.2
2024-03-22T05:55:20.786Z,99.3
2024-03-22T05:58:20.858Z,98.7
2024-03-22T06:01:21.046Z,98.3
2024-03-22T06:04:20.778Z,97.5
2024-03-22T06:07:20.800Z,98.5
2024-03-22T06:10:20.851Z,98.0
2024-03-22T06:13:20.827Z,96.2
2024-03-22T06:16:23.185Z,94.7
2024-03-22T06:19:20.804Z,93.4
2024-03-22T06:22:22.635Z,94.3
2024-03-22T06:25:20.748Z,93.4
2024-03-22T06:28:20.794Z,91.2
2024-03-22T06:31:20.904Z,92.0
2024-03-22T06:34:20.784Z,89.9
2024-03-22T06:37:20.801Z,89.3
2024-03-22T06:40:20.865Z,90.6
2024-03-22T06:43:21.000Z,90.6
2024-03-22T06:46:20.931Z,90.0
2024-03-22T06:49:23.456Z,90.6
2024-03-22T06:52:20.772Z,90.6
2024-03-22T06:55:20.831Z,89.5
2024-03-22T06:58:20.756Z,88.6
2024-03-22T07:01:21.001Z,90.0
2024-03-22T07:04:20.770Z,87.2
2024-03-22T07:07:20.814Z,88.1
2024-03-22T07:10:21.052Z,88.6
2024-03-22T07:13:20.756Z,90.0
2024-03-22T07:16:22.267Z,90.3
2024-03-22T07:19:20.799Z,88.9
2024-03-22T07:22:20.796Z,88.6
2024-03-22T07:25:21.101Z,87.0
2024-03-22T07:28:20.794Z,88.2
2024-03-22T07:31:21.357Z,88.6
2024-03-22T07:34:20.804Z,89.6
2024-03-22T07:37:30.433Z,86.8
2024-03-22T07:40:20.971Z,87.8
2024-03-22T07:43:20.849Z,89.3
2024-03-22T07:46:20.933Z,86.8
2024-03-22T07:49:21.047Z,88.4
2024-03-22T07:52:20.888Z,90.0
2024-03-22T07:55:20.821Z,87.8
2024-03-22T07:58:20.949Z,88.6
2024-03-22T08:01:21.181Z,89.2
2024-03-22T08:04:22.321Z,91.0
2024-03-22T08:07:20.804Z,91.3
2024-03-22T08:10:21.151Z,90.3
2024-03-22T08:13:21.174Z,93.6
2024-03-22T08:16:20.825Z,93.6
2024-03-22T08:19:20.984Z,94.3
2024-03-22T08:22:21.703Z,95.4
2024-03-22T08:25:21.286Z,97.1
2024-03-22T08:31:23.660Z,98.0
2024-03-22T08:34:21.201Z,99.9
2024-03-22T08:37:21.021Z,99.0
2024-03-22T08:40:21.077Z,102.2
2024-03-22T08:43:20.819Z,105.2
2024-03-22T08:46:21.181Z,106.0
2024-03-22T08:49:21.002Z,107.0
2024-03-22T08:52:22.679Z,107.5
2024-03-22T08:55:22.325Z,105.4
2024-03-22T08:58:33.581Z,109.6
2024-03-22T09:01:21.273Z,110.8
2024-03-22T09:04:21.328Z,112.7
2024-03-22T09:07:29.373Z,112.4
2024-03-22T09:10:20.956Z,112.9
2024-03-22T09:13:21.731Z,111.8
2024-03-22T09:16:21.369Z,113.7
2024-03-22T09:19:21.176Z,114.4
2024-03-22T09:22:21.088Z,117.3
2024-03-22T09:25:21.241Z,117.5
2024-03-22T09:28:20.996Z,115.4
2024-03-22T09:31:30.876Z,117.2
2024-03-22T09:34:21.059Z,117.7
2024-03-22T09:37:21.929Z,114.9
2024-03-22T09:40:20.827Z,114.7
2024-03-22T09:43:20.988Z,114.5
2024-03-22T09:46:20.740Z,111.9
2024-03-22T09:49:20.806Z,112.4
2024-03-22T09:52:20.649Z,109.8
2024-03-22T09:55:20.720Z,112.4
2024-03-22T09:58:20.873Z,110.6
2024-03-22T10:01:20.754Z,113.4
2024-03-22T10:04:22.570Z,109.5
2024-03-22T10:07:20.675Z,106.5
2024-03-22T10:10:20.639Z,96.2
2024-03-22T10:13:22.507Z,94.4
2024-03-22T10:16:20.702Z,93.6
2024-03-22T10:19:20.881Z,92.4
2024-03-22T10:22:20.698Z,87.9
2024-03-22T10:25:20.686Z,86.5
2024-03-22T10:28:21.056Z,83.6
2024-03-22T10:31:21.195Z,79.5
2024-03-22T10:34:20.986Z,76.0
2024-03-22T10:37:20.960Z,72.7
2024-03-22T10:40:20.960Z,69.7
2024-03-22T10:43:21.115Z,67.6
2024-03-22T10:46:21.119Z,66.1
2024-03-22T10:49:20.856Z,68.2
2024-03-22T10:52:21.023Z,67.9
2024-03-22T10:55:21.957Z,66.8
2024-03-22T10:58:20.803Z,65.5
2024-03-22T11:01:21.403Z,66.5
2024-03-22T11:04:20.769Z,64.4
2024-03-22T11:07:22.539Z,61.4
2024-03-22T11:10:20.830Z,62.7
2024-03-22T11:13:20.879Z,61.9
2024-03-22T11:16:20.898Z,61.6
2024-03-22T11:19:20.902Z,61.3
2024-03-22T11:22:20.858Z,59.2
2024-03-22T11:25:20.890Z,58.1
2024-03-22T11:28:20.882Z,59.2
2024-03-22T11:31:21.003Z,59.2
2024-03-22T11:34:21.446Z,58.8
2024-03-22T11:37:20.919Z,58.1
2024-03-22T11:40:20.918Z,55.0
2024-03-22T11:43:20.947Z,55.3
2024-03-22T11:46:20.877Z,52.9
2024-03-22T11:49:20.959Z,54.2
2024-03-22T11:52:20.877Z,53.0
2024-03-22T11:55:20.858Z,54.0
2024-03-22T11:58:20.863Z,54.9
2024-03-22T12:04:20.898Z,50.0
2024-03-22T12:07:20.845Z,52.9
2024-03-22T12:10:20.952Z,52.2
2024-03-22T12:13:21.340Z,47.8
2024-03-22T12:16:20.868Z,49.2
2024-03-22T12:19:20.894Z,53.3
2024-03-22T12:22:20.916Z,51.1
2024-03-22T12:25:20.934Z,51.4
2024-03-22T12:28:28.267Z,49.2
2024-03-22T12:31:21.135Z,51.2
2024-03-22T12:34:20.903Z,50.0
2024-03-22T12:37:20.915Z,44.2
2024-03-22T12:40:20.946Z,46.1
2024-03-22T12:43:20.960Z,46.9
2024-03-22T12:46:21.046Z,44.7
2024-03-22T12:49:22.000Z,42.5
2024-03-22T12:52:20.885Z,43.6
2024-03-22T12:55:20.869Z,41.7
2024-03-22T12:58:20.847Z,41.4
2024-03-22T13:01:21.135Z,40.6
2024-03-22T13:04:20.889Z,40.8
2024-03-22T13:07:20.940Z,40.3
2024-03-22T13:10:21.408Z,38.6
2024-03-22T13:13:21.032Z,36.4
2024-03-22T13:19:20.984Z,39.2
2024-03-22T13:22:20.875Z,39.2
2024-03-22T13:25:20.909Z,36.9
2024-03-22T13:28:20.979Z,38.1
2024-03-22T13:31:21.049Z,37.8
2024-03-22T13:34:21.085Z,36.7
2024-03-22T13:37:20.911Z,38.1
2024-03-22T13:40:20.882Z,39.4
2024-03-22T13:43:20.859Z,41.7
2024-03-22T13:46:22.538Z,41.7
2024-03-22T13:49:20.825Z,45.8
2024-03-22T13:52:22.126Z,51.6
2024-03-22T13:55:20.903Z,47.8
2024-03-22T13:58:32.473Z,41.7
2024-03-22T14:01:21.335Z,40.3
2024-03-22T14:04:21.078Z,40.3
2024-03-22T14:07:21.153Z,37.8
2024-03-22T14:10:21.115Z,40.6
2024-03-22T14:13:20.941Z,45.0
2024-03-22T14:16:21.224Z,41.7
2024-03-22T14:19:20.949Z,44.4
2024-03-22T14:22:21.052Z,45.8
2024-03-22T14:25:21.056Z,42.5
2024-03-22T14:28:20.982Z,47.5
2024-03-22T14:31:21.699Z,45.8
2024-03-22T14:34:20.938Z,45.8
2024-03-22T14:37:20.848Z,49.7
2024-03-22T14:40:20.984Z,45.8
2024-03-22T14:43:20.882Z,52.1
2024-03-22T14:46:20.977Z,49.4
2024-03-22T14:49:20.975Z,53.0
2024-03-22T14:52:21.049Z,51.6
2024-03-22T14:55:21.071Z,51.5
2024-03-22T14:58:21.337Z,52.3
2024-03-22T15:01:21.096Z,51.5
2024-03-22T15:04:23.326Z,52.6
2024-03-22T15:07:20.812Z,51.9
2024-03-22T15:10:21.743Z,49.7
2024-03-22T15:13:20.846Z,52.6
2024-03-22T15:16:21.788Z,51.8
2024-03-22T15:19:20.941Z,52.2
2024-03-22T15:22:20.976Z,51.4
2024-03-22T15:25:20.848Z,53.3
2024-03-22T15:28:20.992Z,56.3
2024-03-22T15:31:23.212Z,54.2
2024-03-22T15:34:21.034Z,54.7
2024-03-22T15:37:21.014Z,56.0
2024-03-22T15:40:21.073Z,54.6
2024-03-22T15:43:21.133Z,54.2
2024-03-22T15:46:21.258Z,55.3
2024-03-22T15:49:21.140Z,56.5
2024-03-22T15:52:21.204Z,56.5
2024-03-22T15:55:21.002Z,57.8
2024-03-22T15:58:20.912Z,57.1
2024-03-22T16:01:21.621Z,58.8
2024-03-22T16:04:21.031Z,61.2
2024-03-22T16:10:25.051Z,60.3
2024-03-22T16:13:21.359Z,59.2
2024-03-22T16:16:21.309Z,61.6
2024-03-22T16:19:20.957Z,59.6
2024-03-22T16:22:21.049Z,57.4
2024-03-22T16:25:20.871Z,58.1
2024-03-22T16:28:21.013Z,57.1
2024-03-22T16:31:21.416Z,54.2
2024-03-22T16:34:20.852Z,55.0
2024-03-22T16:37:20.823Z,55.8
2024-03-22T16:40:21.061Z,52.1
2024-03-22T16:43:20.896Z,54.2
2024-03-22T16:46:20.847Z,56.0
2024-03-22T16:49:20.842Z,56.0
2024-03-22T16:52:21.517Z,55.0
2024-03-22T16:55:20.859Z,56.7
2024-03-22T16:58:22.031Z,56.5
2024-03-22T17:01:21.125Z,58.1
2024-03-22T17:04:20.790Z,56.8
2024-03-22T17:07:26.186Z,58.1
2024-03-22T17:10:20.925Z,58.4
2024-03-22T17:13:25.600Z,58.4
2024-03-22T17:16:20.810Z,58.9
2024-03-22T17:19:20.927Z,59.2
2024-03-22T17:22:20.778Z,58.6
2024-03-22T17:25:20.958Z,59.2
2024-03-22T17:28:20.794Z,60.9
2024-03-22T17:31:28.526Z,59.1
2024-03-22T17:34:21.481Z,59.1
2024-03-22T17:37:21.142Z,60.6
2024-03-22T17:40:21.076Z,61.9
2024-03-22T17:43:21.131Z,60.7
2024-03-22T17:46:21.439Z,59.3
2024-03-22T17:49:21.481Z,60.6
2024-03-22T17:52:21.304Z,64.9
2024-03-22T17:55:21.189Z,63.8
2024-03-22T17:58:20.930Z,60.3
2024-03-22T18:01:21.351Z,60.3
2024-03-22T18:04:21.106Z,61.3
2024-03-22T18:07:28.403Z,59.2
2024-03-22T18:10:22.086Z,59.3
2024-03-22T18:13:20.864Z,60.0
2024-03-22T18:16:21.196Z,59.9
2024-03-22T18:19:20.811Z,59.3
2024-03-22T18:22:20.877Z,61.7
2024-03-22T18:25:20.941Z,64.1
2024-03-22T18:28:20.785Z,65.5
2024-03-22T18:31:20.999Z,65.4
2024-03-22T18:34:20.771Z,66.2
2024-03-22T18:37:20.860Z,65.1
2024-03-22T18:40:20.774Z,66.8
2024-03-22T18:43:20.807Z,62.0
2024-03-22T18:46:20.936Z,60.5
2024-03-22T18:49:20.741Z,58.9
2024-03-22T18:52:20.726Z,59.9
2024-03-22T18:55:20.766Z,62.7
2024-03-22T18:58:20.792Z,72.2
2024-03-22T19:01:20.905Z,66.5
2024-03-22T19:04:22.683Z,66.2
2024-03-22T19:07:20.786Z,65.1
2024-03-22T19:10:20.790Z,63.8
2024-03-22T19:13:20.759Z,62.4
2024-03-22T19:16:20.730Z,62.1
2024-03-22T19:19:20.864Z,65.2
2024-03-22T19:22:20.749Z,64.9
2024-03-22T19:25:20.810Z,61.3
2024-03-22T19:28:20.738Z,64.4
2024-03-22T19:31:21.198Z,62.4
2024-03-22T19:34:20.764Z,65.7
2024-03-22T19:37:20.837Z,61.4
2024-03-22T19:40:20.888Z,71.0
2024-03-22T19:43:20.809Z,76.6
2024-03-22T19:46:22.841Z,74.1
2024-03-22T19:49:20.778Z,70.6
2024-03-22T19:52:20.907Z,69.6
2024-03-22T19:55:20.791Z,65.8
2024-03-22T19:58:20.786Z,64.1
2024-03-22T20:01:21.199Z,64.5
2024-03-22T20:04:20.857Z,64.4
2024-03-22T20:07:20.805Z,63.0
2024-03-22T20:10:20.855Z,63.0
2024-03-22T20:13:20.942Z,62.6
2024-03-22T20:16:20.901Z,62.7
2024-03-22T20:19:20.806Z,66.1
2024-03-22T20:22:20.776Z,67.5
2024-03-22T20:25:20.774Z,66.1
2024-03-22T20:28:20.940Z,62.7
2024-03-22T20:31:21.062Z,62.3
2024-03-22T20:34:20.900Z,64.0
2024-03-22T20:37:20.821Z,60.9
2024-03-22T20:40:21.107Z,63.4
2024-03-22T20:43:20.807Z,63.8
2024-03-22T20:46:20.936Z,68.6
2024-03-22T20:49:20.901Z,65.9
2024-03-22T20:52:20.838Z,64.8
2024-03-22T20:55:20.774Z,64.2
2024-03-22T20:58:20.878Z,60.6
2024-03-22T21:01:21.138Z,64.5
2024-03-22T21:04:21.201Z,65.2
2024-03-22T21:07:20.797Z,65.1
2024-03-22T21:10:20.975Z,64.4
2024-03-22T21:13:20.877Z,67.5
2024-03-22T21:16:20.955Z,65.5
2024-03-22T21:19:20.893Z,62.6
2024-03-22T21:22:20.918Z,61.3
2024-03-22T21:25:20.769Z,60.3
2024-03-22T21:28:20.860Z,61.4
2024-03-22T21:31:20.927Z,58.2
2024-03-22T21:34:21.078Z,59.6
2024-03-22T21:37:20.946Z,61.0
2024-03-22T21:40:20.854Z,59.8
2024-03-22T21:43:20.802Z,59.6
2024-03-22T21:46:20.880Z,60.5
2024-03-22T21:49:20.920Z,61.2
2024-03-22T21:52:20.878Z,63.3
2024-03-22T21:55:20.835Z,64.2
2024-03-22T21:58:20.893Z,63.3
2024-03-22T22:01:20.949Z,61.6
2024-03-22T22:04:20.810Z,62.1
2024-03-22T22:07:20.826Z,61.3
2024-03-22T22:10:20.871Z,61.9
2024-03-22T22:13:20.954Z,61.7
2024-03-22T22:16:24.325Z,64.0
2024-03-22T22:19:20.911Z,63.5
2024-03-22T22:22:20.759Z,62.3
2024-03-22T22:25:20.853Z,60.6
2024-03-22T22:28:20.899Z,61.4
2024-03-22T22:31:21.103Z,61.6
2024-03-22T22:34:20.806Z,60.9
2024-03-22T22:37:20.770Z,60.6
2024-03-22T22:40:21.775Z,59.8
2024-03-22T22:43:20.793Z,58.8
2024-03-22T22:46:20.950Z,61.6
2024-03-22T22:49:20.827Z,60.7
2024-03-22T22:52:20.718Z,59.9
2024-03-22T22:55:20.824Z,59.6
2024-03-22T22:58:20.812Z,60.6
2024-03-22T23:01:21.488Z,58.4
2024-03-22T23:04:20.842Z,59.6
2024-03-22T23:07:20.994Z,61.2
2024-03-22T23:10:20.845Z,59.9
2024-03-22T23:13:20.878Z,61.6
2024-03-22T23:16:21.662Z,61.6
2024-03-22T23:19:20.805Z,62.0
2024-03-22T23:22:21.586Z,61.4
2024-03-22T23:25:20.781Z,59.8
2024-03-22T23:28:20.814Z,61.2
2024-03-22T23:31:21.255Z,58.2
2024-03-22T23:34:20.745Z,58.1
2024-03-22T23:37:20.826Z,60.2
2024-03-22T23:40:20.863Z,60.6
2024-03-22T23:43:20.766Z,60.5
2024-03-22T23:46:20.952Z,60.3
2024-03-22T23:49:20.925Z,60.9
2024-03-22T23:52:20.869Z,60.9
2024-03-22T23:55:20.904Z,60.2
2024-03-22T23:58:20.895Z,61.0
